Time;durP1;ratioP1;P1;durP2;ratioP2;P2;SDS_P1;SDS_P2;PMS_P1;PMS_P2;Temp;Humidity;BMP_temperature;BMP_pressure;BME280_temperature;BME280_humidity;BME280_pressure;Samples;Min_cycle;Max_cycle;Signal;HPM_P1;HPM_P2
2022/04/26 03:38:35;;;;;;;;;4.75;4.75;;;;;;;;4983259;28;45471;-74
2022/04/26 03:41:01;;;;;;;;;4.50;4.50;;;;;;;;4984186;28;45441;-72
2022/04/26 03:43:26;;;;;;;;;7.00;6.00;;;;;;;;4981884;28;45350;-72
2022/04/26 03:45:52;;;;;;;;;4.50;4.50;;;;;;;;4978469;28;45614;-72
2022/04/26 03:48:18;;;;;;;;;3.50;3.50;;;;;;;;4993706;28;45508;-72
2022/04/26 03:50:43;;;;;;;;;4.75;3.50;;;;;;;;4995154;28;46450;-72
2022/04/26 03:53:08;;;;;;;;;3.50;3.50;;;;;;;;4997462;28;45386;-72
2022/04/26 03:55:34;;;;;;;;;5.00;5.00;;;;;;;;5011327;28;45461;-72
2022/04/26 03:57:59;;;;;;;;;4.00;4.00;;;;;;;;5026905;28;45720;-72
2022/04/26 04:00:26;;;;;;;;;3.75;3.75;;;;;;;;5016263;28;45564;-72
2022/04/26 04:02:51;;;;;;;;;5.00;4.25;;;;;;;;5014850;28;45447;-72
2022/04/26 04:05:16;;;;;;;;;5.25;5.25;;;;;;;;5013604;28;45541;-71
2022/04/26 04:07:41;;;;;;;;;5.00;5.00;;;;;;;;5014199;28;45412;-72
2022/04/26 04:10:07;;;;;;;;;5.00;5.00;;;;;;;;5012780;28;45570;-72
2022/04/26 04:12:32;;;;;;;;;5.00;5.00;;;;;;;;5008847;28;45568;-72
2022/04/26 04:14:57;;;;;;;;;5.25;4.75;;;;;;;;5002484;28;45368;-72
2022/04/26 04:17:22;;;;;;;;;5.25;5.25;;;;;;;;5016458;28;45731;-72
2022/04/26 04:19:47;;;;;;;;;6.50;5.50;;;;;;;;5018570;28;45692;-72
2022/04/26 04:22:14;;;;;;;;;5.00;5.00;;;;;;;;5008866;28;45471;-72
2022/04/26 04:24:39;;;;;;;;;7.00;7.00;;;;;;;;5014420;28;46158;-72
2022/04/26 04:27:04;;;;;;;;;6.00;6.00;;;;;;;;5018812;28;45458;-72
2022/04/26 04:29:30;;;;;;;;;5.00;5.00;;;;;;;;5013711;28;48627;-72
2022/04/26 04:31:55;;;;;;;;;6.75;5.00;;;;;;;;5009855;28;45496;-72
2022/04/26 04:34:20;;;;;;;;;4.75;4.75;;;;;;;;5003414;28;45401;-72
2022/04/26 04:36:45;;;;;;;;;6.00;6.00;;;;;;;;5024725;28;45478;-72
2022/04/26 04:39:13;;;;;;;;;6.00;6.00;;;;;;;;5000042;28;45735;-72
2022/04/26 04:41:38;;;;;;;;;10.00;8.00;;;;;;;;5013763;28;45261;-72
2022/04/26 04:44:07;;;;;;;;;5.00;5.00;;;;;;;;5008435;28;45470;-72
2022/04/26 04:46:33;;;;;;;;;5.50;5.50;;;;;;;;5004742;28;45341;-72
2022/04/26 04:48:58;;;;;;;;;3.75;3.75;;;;;;;;5027452;28;46059;-72
2022/04/26 04:51:23;;;;;;;;;5.75;5.75;;;;;;;;5003496;28;45436;-72
2022/04/26 04:53:48;;;;;;;;;6.00;6.00;;;;;;;;5014529;28;45442;-72
2022/04/26 04:56:13;;;;;;;;;7.25;6.00;;;;;;;;5014072;28;45397;-71
2022/04/26 04:58:39;;;;;;;;;6.00;4.25;;;;;;;;5011699;28;45502;-72
2022/04/26 05:01:04;;;;;;;;;6.00;6.00;;;;;;;;5004375;28;45471;-72
2022/04/26 05:03:29;;;;;;;;;6.00;6.00;;;;;;;;5014541;28;45328;-72
2022/04/26 05:05:54;;;;;;;;;5.00;5.00;;;;;;;;5001806;28;45363;-71
2022/04/26 05:08:20;;;;;;;;;5.50;5.50;;;;;;;;5010775;28;45632;-72
2022/04/26 05:10:45;;;;;;;;;5.00;5.00;;;;;;;;5010902;28;45247;-72
2022/04/26 05:13:10;;;;;;;;;6.00;6.00;;;;;;;;5000491;28;45538;-72
2022/04/26 05:15:38;;;;;;;;;6.00;6.00;;;;;;;;5014336;28;45503;-71
2022/04/26 05:18:03;;;;;;;;;5.00;5.00;;;;;;;;5012729;28;47211;-72
2022/04/26 05:20:28;;;;;;;;;4.25;2.25;;;;;;;;5013365;28;45358;-72
2022/04/26 05:25:37;;;;;;;;;5.75;5.75;;;;;;;;5003905;28;45494;-72
2022/04/26 05:28:03;;;;;;;;;6.00;5.00;;;;;;;;5017203;28;48305;-72
2022/04/26 05:30:28;;;;;;;;;6.50;6.50;;;;;;;;5001412;28;45381;-72
2022/04/26 05:32:54;;;;;;;;;5.75;5.25;;;;;;;;5017987;28;45307;-73
2022/04/26 05:35:21;;;;;;;;;5.00;5.00;;;;;;;;5017108;28;45559;-77
2022/04/26 05:37:46;;;;;;;;;5.25;5.00;;;;;;;;5017091;28;45400;-74
2022/04/26 05:40:11;;;;;;;;;5.50;5.50;;;;;;;;5016263;28;45973;-69
2022/04/26 05:42:40;;;;;;;;;7.50;7.00;;;;;;;;5015752;28;45616;-68
2022/04/26 05:45:05;;;;;;;;;5.00;5.00;;;;;;;;5014938;28;45474;-68
2022/04/26 05:47:30;;;;;;;;;6.75;5.75;;;;;;;;5010934;28;45599;-69
2022/04/26 05:49:56;;;;;;;;;6.00;5.25;;;;;;;;5011576;28;45483;-68
2022/04/26 05:52:21;;;;;;;;;5.00;5.00;;;;;;;;5013558;28;45495;-68
2022/04/26 05:54:46;;;;;;;;;6.25;6.25;;;;;;;;5013741;28;45448;-69
2022/04/26 05:57:11;;;;;;;;;8.00;8.00;;;;;;;;5016607;28;46534;-68
2022/04/26 05:59:36;;;;;;;;;5.00;5.00;;;;;;;;5015830;28;45349;-70
2022/04/26 06:02:02;;;;;;;;;7.00;7.00;;;;;;;;5013860;28;45434;-70
2022/04/26 06:04:27;;;;;;;;;8.25;7.00;;;;;;;;5015551;28;45307;-70
2022/04/26 06:06:52;;;;;;;;;6.00;5.75;;;;;;;;5016141;28;45448;-70
2022/04/26 06:09:19;;;;;;;;;9.00;9.00;;;;;;;;5016699;28;45400;-70
2022/04/26 06:11:44;;;;;;;;;7.00;6.75;;;;;;;;5012968;28;47463;-69
2022/04/26 06:14:09;;;;;;;;;5.00;5.00;;;;;;;;5013703;28;45634;-70
2022/04/26 06:16:35;;;;;;;;;4.50;4.50;;;;;;;;5014423;28;46297;-68
2022/04/26 06:19:00;;;;;;;;;10.25;10.25;;;;;;;;5015721;28;45608;-68
2022/04/26 06:21:25;;;;;;;;;8.25;8.25;;;;;;;;5000523;28;45355;-71
2022/04/26 06:23:50;;;;;;;;;10.25;8.00;;;;;;;;5003936;28;45535;-68
2022/04/26 06:26:16;;;;;;;;;7.25;7.25;;;;;;;;5007560;28;46462;-67
2022/04/26 06:28:41;;;;;;;;;6.25;6.25;;;;;;;;5015811;28;45254;-67
2022/04/26 06:31:06;;;;;;;;;8.50;6.50;;;;;;;;5016375;28;45377;-67
2022/04/26 06:33:33;;;;;;;;;6.25;5.75;;;;;;;;5015446;28;45281;-67
2022/04/26 06:35:58;;;;;;;;;6.75;6.75;;;;;;;;5016710;28;46453;-67
2022/04/26 06:38:23;;;;;;;;;6.75;6.25;;;;;;;;5007630;28;45455;-67
2022/04/26 06:40:49;;;;;;;;;8.00;7.75;;;;;;;;5005169;28;45451;-66
2022/04/26 06:43:14;;;;;;;;;6.25;6.25;;;;;;;;5004001;28;45435;-66
2022/04/26 06:45:40;;;;;;;;;6.00;5.50;;;;;;;;5016058;28;47259;-67
2022/04/26 06:48:08;;;;;;;;;6.50;6.50;;;;;;;;5016720;28;45432;-67
2022/04/26 06:50:34;;;;;;;;;6.75;6.75;;;;;;;;5002592;28;46224;-67
2022/04/26 06:52:59;;;;;;;;;7.75;7.00;;;;;;;;5009597;28;45321;-67
2022/04/26 06:55:24;;;;;;;;;6.25;6.25;;;;;;;;5019853;28;47091;-66
2022/04/26 06:57:49;;;;;;;;;7.00;5.75;;;;;;;;5000531;28;45448;-67
2022/04/26 07:00:15;;;;;;;;;7.50;7.25;;;;;;;;5012704;28;45298;-66
2022/04/26 07:02:40;;;;;;;;;6.75;6.50;;;;;;;;5004844;28;45265;-67
2022/04/26 07:05:06;;;;;;;;;6.75;6.75;;;;;;;;5004243;28;46066;-67
2022/04/26 07:07:31;;;;;;;;;7.00;7.00;;;;;;;;5004595;28;45543;-67
2022/04/26 07:09:56;;;;;;;;;7.75;6.00;;;;;;;;5001198;28;45570;-67
2022/04/26 07:12:21;;;;;;;;;6.25;6.25;;;;;;;;5016278;28;45344;-67
2022/04/26 07:14:46;;;;;;;;;6.25;6.25;;;;;;;;5023821;28;45293;-67
2022/04/26 07:17:12;;;;;;;;;8.75;7.25;;;;;;;;5019020;28;46645;-67
2022/04/26 07:19:37;;;;;;;;;7.00;7.00;;;;;;;;5013455;28;46160;-67
2022/04/26 07:22:03;;;;;;;;;7.25;7.25;;;;;;;;5015252;28;45460;-66
2022/04/26 07:24:29;;;;;;;;;7.25;7.25;;;;;;;;4999495;28;46584;-67
2022/04/26 07:26:55;;;;;;;;;6.25;5.75;;;;;;;;5004363;28;45476;-66
2022/04/26 07:29:20;;;;;;;;;8.50;8.50;;;;;;;;5016553;28;45381;-66
2022/04/26 07:31:46;;;;;;;;;8.00;7.50;;;;;;;;5025986;28;45657;-66
2022/04/26 07:34:20;;;;;;;;;5.75;5.75;;;;;;;;5011389;28;46264;-66
2022/04/26 07:36:46;;;;;;;;;9.25;7.75;;;;;;;;5024724;28;45297;-67
2022/04/26 07:39:11;;;;;;;;;8.00;8.00;;;;;;;;5014306;28;45340;-67
2022/04/26 07:41:36;;;;;;;;;7.00;6.00;;;;;;;;5015746;28;45306;-66
2022/04/26 07:44:02;;;;;;;;;8.25;8.25;;;;;;;;5014930;28;46615;-66
2022/04/26 07:46:27;;;;;;;;;9.00;9.00;;;;;;;;5014069;28;46009;-67
2022/04/26 07:48:54;;;;;;;;;7.25;7.25;;;;;;;;5014230;28;45277;-67
2022/04/26 07:51:19;;;;;;;;;7.25;7.25;;;;;;;;5005413;28;45511;-67
2022/04/26 07:53:45;;;;;;;;;7.75;7.00;;;;;;;;5003409;28;45373;-67
2022/04/26 07:56:10;;;;;;;;;6.50;6.50;;;;;;;;5003732;28;45285;-67
2022/04/26 07:58:36;;;;;;;;;9.00;9.00;;;;;;;;5019813;28;45562;-66
2022/04/26 08:01:01;;;;;;;;;6.00;6.00;;;;;;;;5002295;28;46241;-66
2022/04/26 08:03:27;;;;;;;;;8.25;8.25;;;;;;;;4999015;28;45483;-67
2022/04/26 08:05:53;;;;;;;;;7.50;6.25;;;;;;;;5003130;28;45427;-67
2022/04/26 08:08:18;;;;;;;;;6.25;6.25;;;;;;;;5003723;28;45589;-67
2022/04/26 08:10:43;;;;;;;;;9.25;8.25;;;;;;;;5003655;28;45376;-67
2022/04/26 08:13:09;;;;;;;;;7.00;7.00;;;;;;;;5001947;28;45511;-66
2022/04/26 08:15:34;;;;;;;;;6.00;6.00;;;;;;;;5013538;28;45280;-67
2022/04/26 08:18:00;;;;;;;;;7.25;7.00;;;;;;;;5023185;28;45550;-67
2022/04/26 08:20:26;;;;;;;;;7.75;6.75;;;;;;;;5017132;28;45446;-66
2022/04/26 08:22:51;;;;;;;;;5.00;5.00;;;;;;;;5010129;28;47096;-67
2022/04/26 08:28:01;;;;;;;;;7.25;7.25;;;;;;;;5000510;28;45499;-66
2022/04/26 08:30:26;;;;;;;;;6.50;6.50;;;;;;;;5013870;28;45545;-67
2022/04/26 08:32:52;;;;;;;;;8.50;8.50;;;;;;;;5016052;28;45983;-67
2022/04/26 08:35:19;;;;;;;;;7.50;6.00;;;;;;;;5008371;28;45494;-66
2022/04/26 08:37:44;;;;;;;;;8.00;8.00;;;;;;;;5011331;28;45403;-67
2022/04/26 08:40:09;;;;;;;;;7.50;7.50;;;;;;;;5001154;28;46188;-67
2022/04/26 08:42:36;;;;;;;;;9.00;7.75;;;;;;;;5014192;28;45392;-67
2022/04/26 08:45:04;;;;;;;;;8.00;7.25;;;;;;;;5027594;28;45517;-67
2022/04/26 08:52:58;;;;;;;;;9.00;8.00;;;;;;;;5009202;28;45438;-66
2022/04/26 08:55:23;;;;;;;;;8.75;8.50;;;;;;;;5003069;28;45432;-66
2022/04/26 08:57:48;;;;;;;;;8.75;8.75;;;;;;;;5015843;28;45869;-67
2022/04/26 09:00:14;;;;;;;;;9.25;9.25;;;;;;;;5018222;28;45309;-66
2022/04/26 09:02:39;;;;;;;;;7.00;7.00;;;;;;;;5016657;28;46327;-67
2022/04/26 09:05:12;;;;;;;;;8.50;7.25;;;;;;;;5016506;28;45416;-67
2022/04/26 09:07:38;;;;;;;;;7.75;7.75;;;;;;;;5016659;28;45318;-67
2022/04/26 09:10:08;;;;;;;;;8.00;8.00;;;;;;;;5014954;28;45560;-66
2022/04/26 09:12:52;;;;;;;;;8.00;7.75;;;;;;;;5016799;28;45717;-66
2022/04/26 09:15:17;;;;;;;;;5.25;5.25;;;;;;;;5014210;28;45345;-66
2022/04/26 09:17:43;;;;;;;;;7.75;6.50;;;;;;;;5015568;28;45298;-66
2022/04/26 09:20:09;;;;;;;;;7.00;7.00;;;;;;;;5017586;28;45207;-66
2022/04/26 09:22:34;;;;;;;;;8.00;7.75;;;;;;;;5016873;28;47007;-67
2022/04/26 09:25:03;;;;;;;;;7.00;7.00;;;;;;;;5017144;28;45380;-66
2022/04/26 09:27:29;;;;;;;;;7.75;7.25;;;;;;;;5017357;28;45384;-66
2022/04/26 09:29:54;;;;;;;;;9.50;9.00;;;;;;;;5017719;28;45325;-66
2022/04/26 09:32:19;;;;;;;;;7.00;7.00;;;;;;;;5016467;28;47176;-67
2022/04/26 09:34:44;;;;;;;;;6.00;6.00;;;;;;;;5015718;28;48694;-66
2022/04/26 09:37:12;;;;;;;;;7.00;7.00;;;;;;;;5017268;28;45443;-67
2022/04/26 09:39:39;;;;;;;;;7.50;7.50;;;;;;;;5001597;28;45421;-66
2022/04/26 09:42:05;;;;;;;;;6.25;6.00;;;;;;;;5008868;28;47251;-67
2022/04/26 09:44:33;;;;;;;;;6.00;6.00;;;;;;;;5007394;28;45378;-66
2022/04/26 09:46:59;;;;;;;;;6.00;6.00;;;;;;;;5010683;28;45624;-67
2022/04/26 09:49:25;;;;;;;;;7.75;7.25;;;;;;;;5016858;28;45552;-66
2022/04/26 09:52:00;;;;;;;;;7.00;7.00;;;;;;;;5016819;28;45527;-66
2022/04/26 09:54:26;;;;;;;;;7.00;7.00;;;;;;;;5012773;28;45448;-67
2022/04/26 09:56:51;;;;;;;;;7.25;7.25;;;;;;;;5007868;28;45672;-66
2022/04/26 09:59:38;;;;;;;;;6.75;5.50;;;;;;;;5009291;28;45442;-67
2022/04/26 10:02:07;;;;;;;;;5.25;5.00;;;;;;;;5005288;28;45518;-67
2022/04/26 10:04:33;;;;;;;;;7.00;7.00;;;;;;;;5005253;28;45901;-67
2022/04/26 10:07:09;;;;;;;;;7.00;6.50;;;;;;;;5002317;28;45496;-67
2022/04/26 10:09:34;;;;;;;;;3.75;3.75;;;;;;;;4999688;28;45338;-66
2022/04/26 10:12:01;;;;;;;;;6.75;6.50;;;;;;;;5001507;28;45465;-67
2022/04/26 10:14:28;;;;;;;;;5.25;5.25;;;;;;;;5005211;28;45485;-66
2022/04/26 10:16:54;;;;;;;;;5.00;5.00;;;;;;;;5007717;28;45546;-67
2022/04/26 10:19:19;;;;;;;;;6.00;6.00;;;;;;;;5016414;28;45463;-67
2022/04/26 10:21:46;;;;;;;;;5.25;5.25;;;;;;;;5020792;28;46151;-66
2022/04/26 10:24:12;;;;;;;;;5.00;5.00;;;;;;;;5017222;28;45416;-66
2022/04/26 10:26:38;;;;;;;;;6.25;5.25;;;;;;;;5019668;28;47405;-67
2022/04/26 10:29:06;;;;;;;;;6.25;6.25;;;;;;;;5010582;28;45406;-67
2022/04/26 10:31:37;;;;;;;;;7.25;7.25;;;;;;;;5014259;28;46683;-67
2022/04/26 10:34:15;;;;;;;;;6.00;5.75;;;;;;;;5002551;28;45408;-66
2022/04/26 10:36:40;;;;;;;;;8.00;5.00;;;;;;;;5015149;28;45790;-67
2022/04/26 10:39:05;;;;;;;;;5.25;3.75;;;;;;;;5017049;28;45477;-67
2022/04/26 10:41:38;;;;;;;;;6.75;6.50;;;;;;;;5014682;28;45417;-67
2022/04/26 10:44:20;;;;;;;;;6.00;6.00;;;;;;;;5014818;28;45419;-67
2022/04/26 10:47:08;;;;;;;;;5.25;4.00;;;;;;;;5015737;28;45297;-66
2022/04/26 10:49:40;;;;;;;;;7.25;5.50;;;;;;;;5024522;28;45506;-67
2022/04/26 10:52:05;;;;;;;;;5.50;5.50;;;;;;;;5011551;28;47453;-67
2022/04/26 10:54:46;;;;;;;;;6.25;5.25;;;;;;;;5013014;28;45444;-66
2022/04/26 10:57:21;;;;;;;;;6.00;6.00;;;;;;;;5002082;28;45377;-66
2022/04/26 10:59:57;;;;;;;;;5.75;5.75;;;;;;;;5016032;28;45550;-67
2022/04/26 11:02:23;;;;;;;;;5.00;5.00;;;;;;;;5015333;28;47483;-67
2022/04/26 11:04:56;;;;;;;;;6.25;6.25;;;;;;;;5015698;28;45551;-66
2022/04/26 11:07:25;;;;;;;;;5.25;4.75;;;;;;;;5009968;28;45353;-66
2022/04/26 11:09:53;;;;;;;;;4.75;4.75;;;;;;;;4999700;28;45458;-66
2022/04/26 11:12:19;;;;;;;;;5.00;5.00;;;;;;;;5012425;28;46620;-66
2022/04/26 11:14:45;;;;;;;;;4.25;4.25;;;;;;;;5015010;28;45297;-66
2022/04/26 11:17:10;;;;;;;;;8.25;6.00;;;;;;;;5019688;28;45523;-66
2022/04/26 11:19:36;;;;;;;;;5.50;5.50;;;;;;;;5024425;28;45375;-66
2022/04/26 11:22:05;;;;;;;;;5.75;5.75;;;;;;;;5020022;28;45297;-66
2022/04/26 11:29:59;;;;;;;;;5.00;5.00;;;;;;;;5009753;28;45625;-67
2022/04/26 11:32:31;;;;;;;;;6.00;6.00;;;;;;;;5006517;28;45470;-66
2022/04/26 11:34:56;;;;;;;;;5.25;5.25;;;;;;;;5003708;28;45440;-66
2022/04/26 11:37:22;;;;;;;;;5.50;4.50;;;;;;;;5005279;28;45308;-67
2022/04/26 11:39:47;;;;;;;;;5.00;5.00;;;;;;;;5013801;28;45364;-67
2022/04/26 11:42:13;;;;;;;;;7.00;6.00;;;;;;;;5015656;28;46252;-67
2022/04/26 11:44:56;;;;;;;;;4.25;4.00;;;;;;;;5009277;28;45488;-67
2022/04/26 11:47:35;;;;;;;;;6.00;6.00;;;;;;;;5019392;28;45400;-66
2022/04/26 11:50:20;;;;;;;;;5.00;5.00;;;;;;;;5015970;28;46541;-66
2022/04/26 11:52:46;;;;;;;;;6.75;5.50;;;;;;;;5006869;28;47281;-66
2022/04/26 11:55:21;;;;;;;;;5.00;5.00;;;;;;;;5014820;28;45538;-66
2022/04/26 11:57:47;;;;;;;;;4.00;4.00;;;;;;;;5011112;28;45463;-67
2022/04/26 12:00:13;;;;;;;;;4.75;4.00;;;;;;;;5014090;28;45492;-66
2022/04/26 12:02:39;;;;;;;;;5.75;5.75;;;;;;;;5014627;28;45526;-67
2022/04/26 12:05:04;;;;;;;;;4.00;4.00;;;;;;;;5014654;28;45261;-66
2022/04/26 12:07:31;;;;;;;;;4.25;4.25;;;;;;;;5014535;28;45420;-67
2022/04/26 12:09:56;;;;;;;;;5.00;5.00;;;;;;;;5015056;28;45502;-67
2022/04/26 12:12:21;;;;;;;;;4.50;4.50;;;;;;;;5015038;28;46024;-66
2022/04/26 12:14:47;;;;;;;;;4.25;4.25;;;;;;;;5013542;28;45394;-67
2022/04/26 12:17:18;;;;;;;;;3.75;3.75;;;;;;;;5018079;28;45430;-66
2022/04/26 12:19:50;;;;;;;;;5.00;5.00;;;;;;;;5016643;28;45576;-67
2022/04/26 12:22:15;;;;;;;;;3.75;3.75;;;;;;;;5014085;28;47619;-67
2022/04/26 12:24:46;;;;;;;;;6.25;6.25;;;;;;;;5007906;28;45460;-66
2022/04/26 12:27:12;;;;;;;;;3.75;3.50;;;;;;;;5017850;28;45465;-66
2022/04/26 12:29:56;;;;;;;;;4.25;4.25;;;;;;;;5023288;28;45328;-66
2022/04/26 12:32:24;;;;;;;;;4.00;4.00;;;;;;;;5016486;28;45567;-67
2022/04/26 12:34:54;;;;;;;;;3.25;3.25;;;;;;;;5010261;28;45290;-67
2022/04/26 12:37:23;;;;;;;;;4.75;4.75;;;;;;;;5004047;28;45560;-66
2022/04/26 12:39:50;;;;;;;;;5.75;5.75;;;;;;;;4998495;28;45450;-66
2022/04/26 12:42:17;;;;;;;;;4.75;4.75;;;;;;;;5006540;28;46466;-66
2022/04/26 12:44:50;;;;;;;;;4.25;4.25;;;;;;;;5012679;28;45458;-66
2022/04/26 12:52:46;;;;;;;;;4.00;4.00;;;;;;;;5012685;28;46198;-66
2022/04/26 12:55:12;;;;;;;;;3.00;3.00;;;;;;;;5001010;28;45417;-66
2022/04/26 12:57:50;;;;;;;;;5.00;4.00;;;;;;;;4998719;28;45411;-66
2022/04/26 13:00:16;;;;;;;;;4.00;3.50;;;;;;;;5014894;28;45329;-67
2022/04/26 13:02:41;;;;;;;;;4.50;4.50;;;;;;;;5003104;28;46472;-67
2022/04/26 13:05:07;;;;;;;;;4.25;4.25;;;;;;;;5002516;28;46899;-66
2022/04/26 13:07:32;;;;;;;;;6.25;5.00;;;;;;;;5003008;28;45416;-66
2022/04/26 13:09:57;;;;;;;;;2.50;2.50;;;;;;;;4999326;28;45459;-66
2022/04/26 13:12:22;;;;;;;;;4.25;4.25;;;;;;;;5014360;28;46326;-66
2022/04/26 13:14:47;;;;;;;;;5.00;3.00;;;;;;;;5002906;28;45277;-66
2022/04/26 13:17:13;;;;;;;;;3.75;3.75;;;;;;;;5012191;28;45416;-66
2022/04/26 13:19:38;;;;;;;;;4.25;4.25;;;;;;;;5022068;28;45305;-66
2022/04/26 13:22:03;;;;;;;;;4.00;4.00;;;;;;;;5019448;28;46543;-66
2022/04/26 13:24:29;;;;;;;;;4.00;4.00;;;;;;;;4998085;28;45984;-67
2022/04/26 13:26:54;;;;;;;;;4.00;4.00;;;;;;;;5016716;28;45319;-66
2022/04/26 13:29:19;;;;;;;;;5.25;5.25;;;;;;;;5009735;28;45637;-66
2022/04/26 13:31:44;;;;;;;;;2.25;2.25;;;;;;;;5008677;28;47188;-66
2022/04/26 13:34:11;;;;;;;;;4.00;4.00;;;;;;;;5013405;28;45494;-66
2022/04/26 13:36:36;;;;;;;;;3.00;3.00;;;;;;;;5024706;28;45582;-67
2022/04/26 13:39:02;;;;;;;;;5.00;5.00;;;;;;;;5011714;28;45258;-67
2022/04/26 13:41:27;;;;;;;;;2.50;2.50;;;;;;;;5012239;28;47209;-67
2022/04/26 13:43:53;;;;;;;;;3.00;3.00;;;;;;;;5013691;28;45341;-66
2022/04/26 13:46:18;;;;;;;;;4.25;4.25;;;;;;;;5016264;28;45538;-66
2022/04/26 13:48:44;;;;;;;;;6.00;6.00;;;;;;;;5015509;28;45508;-67
2022/04/26 13:51:09;;;;;;;;;3.00;3.00;;;;;;;;5014014;28;45563;-66
2022/04/26 13:53:35;;;;;;;;;7.50;5.50;;;;;;;;5016506;28;45545;-67
2022/04/26 13:56:00;;;;;;;;;4.00;4.00;;;;;;;;5012103;28;45313;-66
2022/04/26 13:58:26;;;;;;;;;4.00;4.00;;;;;;;;5005587;28;45483;-67
2022/04/26 14:00:51;;;;;;;;;5.25;5.00;;;;;;;;5016692;28;47240;-66
2022/04/26 14:03:16;;;;;;;;;3.50;3.50;;;;;;;;5016985;28;45333;-67
2022/04/26 14:05:42;;;;;;;;;3.75;3.75;;;;;;;;5016580;28;45433;-66
2022/04/26 14:08:07;;;;;;;;;3.00;3.00;;;;;;;;5021538;28;45506;-67
2022/04/26 14:10:32;;;;;;;;;3.00;3.00;;;;;;;;5016219;28;46466;-66
2022/04/26 14:12:59;;;;;;;;;2.00;2.00;;;;;;;;5016481;28;45578;-67
2022/04/26 14:23:36;;;;;;;;;4.75;3.50;;;;;;;;5016369;28;45302;-66
2022/04/26 14:26:03;;;;;;;;;4.75;4.75;;;;;;;;5017971;28;45444;-66
2022/04/26 14:28:28;;;;;;;;;4.25;4.25;;;;;;;;5016014;28;45226;-67
2022/04/26 14:30:53;;;;;;;;;3.75;3.75;;;;;;;;5010228;28;45256;-67
2022/04/26 14:33:19;;;;;;;;;2.50;2.50;;;;;;;;5016369;28;45399;-66
2022/04/26 14:35:45;;;;;;;;;3.50;3.50;;;;;;;;5010895;28;45345;-67
2022/04/26 14:38:10;;;;;;;;;3.75;3.75;;;;;;;;5017563;28;45411;-67
2022/04/26 14:40:35;;;;;;;;;4.00;4.00;;;;;;;;5015749;28;45423;-66
2022/04/26 14:43:00;;;;;;;;;5.50;4.00;;;;;;;;5016013;28;45478;-67
2022/04/26 14:45:26;;;;;;;;;3.00;3.00;;;;;;;;5018211;28;45199;-67
2022/04/26 14:47:51;;;;;;;;;5.00;5.00;;;;;;;;5010311;28;45555;-66
2022/04/26 14:50:18;;;;;;;;;3.00;3.00;;;;;;;;5015870;28;45394;-66
2022/04/26 14:52:43;;;;;;;;;3.00;3.00;;;;;;;;5013190;28;45435;-67
2022/04/26 14:55:09;;;;;;;;;4.00;4.00;;;;;;;;5001748;28;45319;-66
2022/04/26 14:57:36;;;;;;;;;3.00;3.00;;;;;;;;5017850;28;45385;-66
2022/04/26 15:00:02;;;;;;;;;3.75;3.00;;;;;;;;5016301;28;45331;-66
2022/04/26 15:02:36;;;;;;;;;5.50;4.25;;;;;;;;5015416;28;45368;-67
2022/04/26 15:05:02;;;;;;;;;3.25;3.25;;;;;;;;5015457;28;45470;-67
2022/04/26 15:09:42;;;;;;;;;6.75;5.00;;;;;;;;5015797;28;45354;-66
2022/04/26 15:10:12;;;;;;;;;2.50;2.50;;;;;;;;5007829;28;46113;-67
2022/04/26 15:18:05;;;;;;;;;4.00;4.00;;;;;;;;5014648;28;45459;-67
2022/04/26 15:20:30;;;;;;;;;3.00;3.00;;;;;;;;5006318;28;46395;-67
2022/04/26 15:22:55;;;;;;;;;3.00;3.00;;;;;;;;5008145;28;45514;-67
2022/04/26 15:25:21;;;;;;;;;2.75;2.75;;;;;;;;5006953;28;45290;-67
2022/04/26 15:27:46;;;;;;;;;3.25;3.25;;;;;;;;4999743;28;45285;-67
2022/04/26 15:30:12;;;;;;;;;4.00;4.00;;;;;;;;5018315;28;46546;-66
2022/04/26 15:32:37;;;;;;;;;4.25;4.25;;;;;;;;5015207;28;45411;-66
2022/04/26 15:35:03;;;;;;;;;4.00;3.50;;;;;;;;5010241;28;45412;-67
2022/04/26 15:37:29;;;;;;;;;3.75;2.75;;;;;;;;5004381;28;45424;-67
2022/04/26 15:39:55;;;;;;;;;4.75;4.00;;;;;;;;5015318;28;45300;-66
2022/04/26 15:42:21;;;;;;;;;3.75;3.75;;;;;;;;5016035;28;45207;-66
2022/04/26 15:44:47;;;;;;;;;4.50;4.50;;;;;;;;5003691;28;45480;-66
2022/04/26 15:47:13;;;;;;;;;2.00;2.00;;;;;;;;5013988;28;45441;-66
2022/04/26 15:49:38;;;;;;;;;3.00;3.00;;;;;;;;5024226;28;45494;-66
2022/04/26 15:52:03;;;;;;;;;2.50;2.50;;;;;;;;5020425;28;45482;-68
2022/04/26 15:54:29;;;;;;;;;5.00;3.50;;;;;;;;5015185;28;45362;-70
2022/04/26 15:56:54;;;;;;;;;3.00;3.00;;;;;;;;5015840;28;45387;-70
2022/04/26 15:59:20;;;;;;;;;3.00;3.00;;;;;;;;5020981;28;45388;-70
2022/04/26 16:01:46;;;;;;;;;3.00;3.00;;;;;;;;5023608;28;45366;-71
2022/04/26 16:04:11;;;;;;;;;4.00;4.00;;;;;;;;5026323;28;45436;-69
2022/04/26 16:06:41;;;;;;;;;3.00;3.00;;;;;;;;4998906;28;45305;-69
2022/04/26 16:22:47;;;;;;;;;3.25;3.25;;;;;;;;5014135;28;46568;-69
2022/04/26 16:25:13;;;;;;;;;3.00;2.75;;;;;;;;5002162;28;45549;-70
2022/04/26 16:27:38;;;;;;;;;4.00;4.00;;;;;;;;5013824;28;45322;-70
2022/04/26 16:30:04;;;;;;;;;3.75;3.75;;;;;;;;5010598;28;46311;-69
2022/04/26 16:32:29;;;;;;;;;3.50;3.25;;;;;;;;5005372;28;45368;-69
2022/04/26 16:34:56;;;;;;;;;3.50;3.00;;;;;;;;5003309;28;45286;-69
2022/04/26 16:37:22;;;;;;;;;2.50;2.50;;;;;;;;5004335;28;45435;-69
2022/04/26 16:39:47;;;;;;;;;3.50;3.50;;;;;;;;5014497;28;46104;-70
2022/04/26 16:42:12;;;;;;;;;3.00;3.00;;;;;;;;5000306;28;45330;-69
2022/04/26 16:44:37;;;;;;;;;4.00;3.25;;;;;;;;5002902;28;45608;-69
2022/04/26 16:47:03;;;;;;;;;7.00;7.00;;;;;;;;5006692;28;45471;-70
2022/04/26 16:49:30;;;;;;;;;4.00;4.00;;;;;;;;5014101;28;45429;-70
2022/04/26 16:51:55;;;;;;;;;4.50;4.50;;;;;;;;5014177;28;45597;-69
2022/04/26 16:54:20;;;;;;;;;6.50;4.75;;;;;;;;5015161;28;45479;-70
2022/04/26 16:56:46;;;;;;;;;4.00;4.00;;;;;;;;5013121;28;45325;-70
2022/04/26 16:59:13;;;;;;;;;4.00;4.00;;;;;;;;5014072;28;45424;-69
2022/04/26 17:01:38;;;;;;;;;5.75;4.75;;;;;;;;5012344;28;45270;-70
2022/04/26 17:04:10;;;;;;;;;5.75;3.75;;;;;;;;5000447;28;45330;-69
2022/04/26 17:06:36;;;;;;;;;3.50;3.50;;;;;;;;4998529;28;45418;-70
2022/04/26 17:09:01;;;;;;;;;4.50;4.50;;;;;;;;5014626;28;46398;-69
2022/04/26 17:11:42;;;;;;;;;3.75;3.75;;;;;;;;5012575;28;45559;-69
2022/04/26 17:14:07;;;;;;;;;3.25;3.25;;;;;;;;5004112;28;45546;-68
2022/04/26 17:16:32;;;;;;;;;3.50;3.25;;;;;;;;5002810;28;45366;-72
2022/04/26 17:18:58;;;;;;;;;5.50;5.50;;;;;;;;5016208;28;46438;-70
2022/04/26 17:21:24;;;;;;;;;5.75;3.75;;;;;;;;5014263;28;45397;-67
2022/04/26 17:23:49;;;;;;;;;5.50;5.25;;;;;;;;5018087;28;45392;-68
2022/04/26 17:26:16;;;;;;;;;5.50;5.50;;;;;;;;5017029;28;45492;-69
2022/04/26 17:28:42;;;;;;;;;10.50;8.50;;;;;;;;5017044;28;45535;-69
2022/04/26 17:31:07;;;;;;;;;10.50;8.75;;;;;;;;5014688;28;45289;-70
2022/04/26 17:33:33;;;;;;;;;10.25;6.00;;;;;;;;5014967;28;45467;-70
2022/04/26 17:35:58;;;;;;;;;8.00;6.25;;;;;;;;5021261;28;45372;-73
2022/04/26 17:38:23;;;;;;;;;15.75;8.75;;;;;;;;5012031;28;47184;-69
2022/04/26 17:40:48;;;;;;;;;9.75;7.00;;;;;;;;5008607;28;45345;-69
2022/04/26 17:43:14;;;;;;;;;10.00;8.00;;;;;;;;5017089;28;45473;-69
2022/04/26 17:45:40;;;;;;;;;8.50;5.75;;;;;;;;5001104;28;45246;-69
2022/04/26 17:48:05;;;;;;;;;7.50;6.00;;;;;;;;5003587;28;45413;-70
2022/04/26 17:50:31;;;;;;;;;7.50;6.75;;;;;;;;5014286;28;45659;-69
2022/04/26 17:58:23;;;;;;;;;10.00;8.25;;;;;;;;5005998;28;45483;-69
2022/04/26 18:00:49;;;;;;;;;9.75;6.25;;;;;;;;5016453;28;45512;-68
2022/04/26 18:03:14;;;;;;;;;5.25;5.00;;;;;;;;5002642;28;45472;-68
2022/04/26 18:05:40;;;;;;;;;6.00;4.50;;;;;;;;5016846;28;45419;-68
2022/04/26 18:08:06;;;;;;;;;5.50;5.50;;;;;;;;5010670;28;45578;-68
2022/04/26 18:10:31;;;;;;;;;6.25;6.00;;;;;;;;5005305;28;45428;-68
2022/04/26 18:12:56;;;;;;;;;6.50;6.50;;;;;;;;5017285;28;45457;-67
2022/04/26 18:15:21;;;;;;;;;6.50;6.50;;;;;;;;5001893;28;45520;-67
2022/04/26 18:17:47;;;;;;;;;6.25;5.25;;;;;;;;5016209;28;45289;-68
2022/04/26 18:20:12;;;;;;;;;6.00;5.75;;;;;;;;5012184;28;45742;-68
2022/04/26 18:22:38;;;;;;;;;7.75;5.50;;;;;;;;5008448;28;45607;-71
2022/04/26 18:25:04;;;;;;;;;4.50;4.50;;;;;;;;5016091;28;45581;-71
2022/04/26 18:27:29;;;;;;;;;2.25;2.25;;;;;;;;5016493;28;46620;-69
2022/04/26 18:29:54;;;;;;;;;5.00;5.00;;;;;;;;5015372;28;47456;-70
2022/04/26 18:32:19;;;;;;;;;6.75;5.00;;;;;;;;5014525;28;45443;-71
2022/04/26 18:34:45;;;;;;;;;4.50;4.50;;;;;;;;5015794;28;45337;-70
2022/04/26 18:37:10;;;;;;;;;5.50;5.50;;;;;;;;5015878;28;47230;-70
2022/04/26 18:39:36;;;;;;;;;5.75;4.00;;;;;;;;5015576;28;46152;-70
2022/04/26 18:42:01;;;;;;;;;7.50;5.50;;;;;;;;5012179;28;45401;-71
2022/04/26 18:44:26;;;;;;;;;5.75;4.25;;;;;;;;5015624;28;45553;-71
2022/04/26 18:46:52;;;;;;;;;2.50;2.50;;;;;;;;5012232;28;47023;-70
2022/04/26 18:49:18;;;;;;;;;4.00;4.00;;;;;;;;5003807;28;45439;-72
2022/04/26 18:51:44;;;;;;;;;8.50;5.50;;;;;;;;5000175;28;45476;-73
2022/04/26 18:54:09;;;;;;;;;4.00;3.00;;;;;;;;5002044;28;45586;-72
2022/04/26 18:56:36;;;;;;;;;6.75;3.75;;;;;;;;5004441;28;45336;-72
2022/04/26 18:59:01;;;;;;;;;6.50;5.50;;;;;;;;5014322;28;45447;-73
2022/04/26 19:01:27;;;;;;;;;4.75;4.25;;;;;;;;5005290;28;45398;-73
2022/04/26 19:03:53;;;;;;;;;5.25;3.75;;;;;;;;5016020;28;45518;-70
2022/04/26 19:06:18;;;;;;;;;6.00;5.00;;;;;;;;5001063;28;46797;-71
2022/04/26 19:08:43;;;;;;;;;4.50;4.25;;;;;;;;5003963;28;45382;-73
2022/04/26 19:13:56;;;;;;;;;4.75;4.00;;;;;;;;5008032;28;45276;-71